Time;durP1;ratioP1;P1;durP2;ratioP2;P2;SDS_P1;SDS_P2;PMS_P1;PMS_P2;Temp;Humidity;BMP_temperature;BMP_pressure;BME280_temperature;BME280_humidity;BME280_pressure;Samples;Min_cycle;Max_cycle;Signal;HPM_P1;HPM_P2
2022/09/21 00:01:59;;;;;;;1.70;1.50;;;10.50;99.90;;;;;;5126942;27;20506;-73
2022/09/21 00:04:24;;;;;;;1.97;1.60;;;10.50;99.90;;;;;;5114082;27;20536;-73
2022/09/21 00:06:50;;;;;;;3.20;1.60;;;10.40;99.90;;;;;;5125104;27;20447;-73
2022/09/21 00:09:15;;;;;;;2.50;1.50;;;10.50;99.90;;;;;;5130999;27;20387;-73
2022/09/21 00:11:41;;;;;;;2.33;1.65;;;10.30;99.90;;;;;;5130560;27;20872;-73
2022/09/21 00:14:11;;;;;;;2.10;1.45;;;10.10;99.90;;;;;;5114987;27;20417;-73
2022/09/21 00:16:37;;;;;;;2.22;2.00;;;10.10;99.90;;;;;;5108531;28;20384;-72
2022/09/21 00:19:04;;;;;;;2.50;1.67;;;10.10;99.90;;;;;;5110005;28;20387;-73
2022/09/21 00:21:29;;;;;;;1.90;1.48;;;10.20;99.90;;;;;;5108791;28;20901;-73
2022/09/21 00:23:55;;;;;;;2.30;2.10;;;10.20;99.90;;;;;;5109804;27;20490;-73
2022/09/21 00:26:23;;;;;;;2.60;1.70;;;10.30;99.90;;;;;;5111775;27;20486;-72
2022/09/21 00:28:58;;;;;;;3.05;1.80;;;10.10;99.90;;;;;;5124883;27;20443;-73
2022/09/21 00:31:25;;;;;;;3.13;1.50;;;10.10;99.90;;;;;;5130471;27;20786;-73
2022/09/21 00:33:51;;;;;;;2.33;1.60;;;10.00;99.90;;;;;;5116995;27;20391;-73
2022/09/21 00:36:19;;;;;;;3.20;1.90;;;9.90;99.90;;;;;;5113787;27;20526;-73
2022/09/21 00:38:49;;;;;;;2.90;1.80;;;9.90;99.90;;;;;;5124541;27;20381;-73
2022/09/21 00:41:14;;;;;;;3.60;2.10;;;10.00;99.90;;;;;;5110203;28;20391;-73
2022/09/21 00:43:46;;;;;;;3.20;2.00;;;10.00;99.90;;;;;;5108235;28;20398;-73
2022/09/21 00:46:20;;;;;;;2.38;1.75;;;9.90;99.90;;;;;;5121402;27;20426;-73
2022/09/21 00:48:46;;;;;;;2.70;1.50;;;10.00;99.90;;;;;;5112054;28;20412;-73
2022/09/21 00:51:12;;;;;;;3.40;1.80;;;10.10;99.90;;;;;;5127165;28;20811;-72
2022/09/21 00:53:38;;;;;;;2.03;1.58;;;10.00;99.90;;;;;;5111748;28;20758;-73
2022/09/21 00:56:05;;;;;;;2.38;1.70;;;9.90;99.90;;;;;;5126573;28;20385;-73
2022/09/21 00:58:37;;;;;;;3.03;1.65;;;9.80;99.90;;;;;;5130193;27;20793;-73
2022/09/21 01:01:03;;;;;;;3.13;2.33;;;9.80;99.90;;;;;;5130211;27;20733;-73
2022/09/21 01:03:30;;;;;;;5.17;1.73;;;9.80;99.90;;;;;;5118635;27;20441;-73
2022/09/21 01:05:55;;;;;;;2.80;1.75;;;9.60;99.90;;;;;;5125643;27;20454;-73
2022/09/21 01:08:22;;;;;;;3.58;1.67;;;9.60;99.90;;;;;;5105560;27;20392;-73
2022/09/21 01:11:11;;;;;;;1.70;1.52;;;9.60;99.90;;;;;;5116051;27;20449;-73
2022/09/21 01:13:55;;;;;;;2.80;1.63;;;9.70;99.90;;;;;;5113253;28;20412;-73
2022/09/21 01:16:53;;;;;;;3.20;2.00;;;9.70;99.90;;;;;;5113576;28;20376;-73
2022/09/21 01:19:48;;;;;;;2.60;1.80;;;9.60;99.90;;;;;;5116165;27;20384;-73
2022/09/21 01:22:50;;;;;;;3.20;1.80;;;9.50;99.90;;;;;;5100931;27;20936;-73
2022/09/21 01:25:36;;;;;;;2.20;1.50;;;9.40;99.90;;;;;;5092796;28;20949;-73
2022/09/21 01:28:19;;;;;;;2.00;1.40;;;9.40;99.90;;;;;;5092816;28;20385;-72
2022/09/21 01:30:48;;;;;;;2.30;1.70;;;9.30;99.90;;;;;;5091543;28;20420;-72
2022/09/21 01:33:22;;;;;;;2.83;1.63;;;9.20;99.90;;;;;;5092504;28;20397;-73
2022/09/21 01:36:04;;;;;;;1.50;1.40;;;9.30;99.90;;;;;;5093666;28;20500;-73
2022/09/21 01:38:36;;;;;;;2.30;1.42;;;9.20;99.90;;;;;;5114958;27;20414;-73
2022/09/21 01:41:05;;;;;;;3.83;1.70;;;9.20;99.90;;;;;;5116530;27;20436;-73
2022/09/21 01:43:38;;;;;;;1.90;1.70;;;9.30;99.90;;;;;;5111521;27;20396;-73
2022/09/21 01:46:08;;;;;;;2.30;1.70;;;9.30;99.90;;;;;;5109347;28;20843;-74
2022/09/21 01:48:38;;;;;;;2.50;1.80;;;9.30;99.90;;;;;;5118668;27;20396;-73
2022/09/21 01:51:08;;;;;;;3.00;2.10;;;9.30;99.90;;;;;;5113173;28;20451;-72
2022/09/21 01:53:42;;;;;;;2.40;1.40;;;9.20;99.90;;;;;;5112658;27;20425;-73
2022/09/21 01:56:18;;;;;;;1.60;1.50;;;9.20;99.90;;;;;;5112910;28;20850;-73
2022/09/21 01:58:53;;;;;;;2.90;1.70;;;9.20;99.90;;;;;;5113625;27;20428;-73
2022/09/21 02:01:22;;;;;;;3.10;1.70;;;9.30;99.90;;;;;;5121455;27;20369;-72
2022/09/21 02:03:52;;;;;;;2.47;1.80;;;9.20;99.90;;;;;;5132788;27;20864;-73
2022/09/21 02:06:18;;;;;;;3.10;1.60;;;9.20;99.90;;;;;;5121195;27;20404;-73
2022/09/21 02:08:45;;;;;;;1.70;1.60;;;9.20;99.90;;;;;;5132965;27;20747;-73
2022/09/21 02:11:12;;;;;;;1.65;1.55;;;9.20;99.90;;;;;;5133091;27;20390;-73
2022/09/21 02:13:43;;;;;;;2.35;1.60;;;9.10;99.90;;;;;;5132896;27;20869;-72
2022/09/21 02:16:31;;;;;;;2.20;1.60;;;9.10;99.90;;;;;;5118670;27;20406;-73
2022/09/21 02:19:20;;;;;;;2.10;1.42;;;9.30;99.90;;;;;;5105326;27;20914;-72
2022/09/21 02:22:02;;;;;;;1.95;1.70;;;9.20;99.90;;;;;;5120348;27;20385;-72
2022/09/21 02:24:31;;;;;;;2.25;1.60;;;9.30;99.90;;;;;;5114149;27;20384;-72
2022/09/21 02:27:20;;;;;;;1.98;1.70;;;9.20;99.90;;;;;;5110395;27;20985;-73
2022/09/21 02:30:06;;;;;;;4.60;1.60;;;9.10;99.90;;;;;;5108562;27;20441;-73
2022/09/21 02:33:10;;;;;;;2.95;2.40;;;9.00;99.90;;;;;;5132629;27;20768;-73
2022/09/21 02:35:54;;;;;;;2.40;1.58;;;9.00;99.90;;;;;;5115885;27;20907;-73
2022/09/21 02:38:46;;;;;;;2.50;1.80;;;9.00;99.90;;;;;;5112880;27;20463;-73
2022/09/21 02:41:30;;;;;;;3.80;1.80;;;8.80;99.90;;;;;;5122688;27;20410;-72
2022/09/21 02:44:03;;;;;;;1.95;1.70;;;8.80;99.90;;;;;;5132165;27;20776;-73
2022/09/21 02:46:37;;;;;;;4.13;2.00;;;8.90;99.90;;;;;;5121467;27;20407;-72
2022/09/21 02:49:17;;;;;;;2.85;2.33;;;8.80;99.90;;;;;;5118022;27;20399;-73
2022/09/21 02:51:46;;;;;;;2.30;1.70;;;8.70;99.90;;;;;;5091209;28;20366;-73
2022/09/21 02:54:17;;;;;;;3.20;1.90;;;8.60;99.90;;;;;;5091161;28;20541;-73
2022/09/21 02:56:46;;;;;;;1.85;1.70;;;8.60;99.90;;;;;;5090705;28;20429;-72
2022/09/21 02:59:13;;;;;;;4.65;1.70;;;8.60;99.90;;;;;;5117772;27;20411;-73
2022/09/21 03:01:39;;;;;;;3.70;1.90;;;8.60;99.90;;;;;;5113019;27;20441;-73
2022/09/21 03:04:05;;;;;;;2.70;2.00;;;8.60;99.90;;;;;;5128177;27;20378;-72
2022/09/21 03:06:32;;;;;;;1.90;1.50;;;8.50;99.90;;;;;;5123384;27;20468;-73
2022/09/21 03:08:57;;;;;;;2.35;1.77;;;8.40;99.90;;;;;;5127372;27;20473;-73
2022/09/21 03:11:24;;;;;;;3.35;1.60;;;8.60;99.90;;;;;;5131609;27;20777;-72
2022/09/21 03:13:49;;;;;;;1.77;1.67;;;8.40;99.90;;;;;;5131671;27;20671;-72
2022/09/21 03:16:15;;;;;;;2.13;1.93;;;8.50;99.90;;;;;;5127856;27;20409;-73
2022/09/21 03:18:43;;;;;;;2.50;2.00;;;8.40;99.90;;;;;;5124676;27;20420;-73
2022/09/21 03:21:11;;;;;;;6.10;2.60;;;8.40;99.90;;;;;;5120289;27;20386;-72
2022/09/21 03:23:38;;;;;;;2.28;1.98;;;8.60;99.90;;;;;;5111002;28;20384;-73
2022/09/21 03:26:04;;;;;;;4.72;2.20;;;8.60;99.90;;;;;;5110585;28;20400;-73
2022/09/21 03:28:30;;;;;;;2.90;2.60;;;8.50;99.90;;;;;;5111160;28;20412;-73
2022/09/21 03:30:56;;;;;;;2.70;1.90;;;8.50;99.90;;;;;;5101057;28;20475;-73
2022/09/21 03:33:21;;;;;;;3.53;1.90;;;8.60;99.90;;;;;;5124265;27;20387;-73
2022/09/21 03:35:47;;;;;;;3.63;2.30;;;8.60;99.90;;;;;;5124544;27;20382;-73
2022/09/21 03:38:15;;;;;;;2.20;1.95;;;8.50;99.90;;;;;;5130661;27;20381;-73
2022/09/21 03:40:45;;;;;;;3.83;2.05;;;8.50;99.90;;;;;;5119874;27;20900;-73
2022/09/21 03:43:11;;;;;;;4.38;1.92;;;8.30;99.90;;;;;;5117180;27;20380;-73
2022/09/21 03:45:38;;;;;;;3.30;2.50;;;8.30;99.90;;;;;;5131509;27;20406;-73
2022/09/21 03:48:04;;;;;;;3.72;2.13;;;8.40;99.90;;;;;;5128224;27;20391;-73
2022/09/21 03:50:30;;;;;;;2.37;1.90;;;8.40;99.90;;;;;;5111211;28;20553;-73
2022/09/21 03:52:55;;;;;;;3.70;2.20;;;8.30;99.90;;;;;;5109350;28;20471;-73
2022/09/21 03:55:21;;;;;;;2.50;2.10;;;8.30;99.90;;;;;;5108516;28;20384;-74
2022/09/21 03:57:47;;;;;;;2.50;1.90;;;8.20;99.90;;;;;;5112063;27;20442;-73
2022/09/21 04:00:13;;;;;;;2.00;1.90;;;8.20;99.90;;;;;;5117881;27;20396;-73
2022/09/21 04:02:40;;;;;;;2.92;2.08;;;8.20;99.90;;;;;;5123820;27;20398;-73
2022/09/21 04:05:08;;;;;;;3.92;2.60;;;8.30;99.90;;;;;;5122731;27;20756;-73
2022/09/21 04:07:34;;;;;;;2.65;2.42;;;8.30;99.90;;;;;;5130004;27;20409;-73
2022/09/21 04:10:04;;;;;;;3.37;2.10;;;8.20;99.90;;;;;;5131227;27;20430;-74
2022/09/21 04:12:31;;;;;;;2.20;2.00;;;8.20;99.90;;;;;;5126240;27;20390;-73
2022/09/21 04:14:56;;;;;;;3.30;2.40;;;8.10;99.90;;;;;;5122278;27;20371;-73
2022/09/21 04:17:22;;;;;;;2.30;2.10;;;8.20;99.90;;;;;;5114326;27;20484;-73
2022/09/21 04:19:47;;;;;;;4.40;2.30;;;8.10;99.90;;;;;;5120304;27;20513;-73
2022/09/21 04:22:13;;;;;;;2.30;2.10;;;8.10;99.90;;;;;;5107377;27;20816;-72
2022/09/21 04:24:42;;;;;;;4.30;2.60;;;8.20;99.90;;;;;;5118133;27;20878;-73
2022/09/21 04:27:09;;;;;;;3.35;2.50;;;8.10;99.90;;;;;;5098452;27;20425;-73
2022/09/21 04:29:35;;;;;;;3.35;2.50;;;8.00;99.90;;;;;;5103077;27;20764;-73
2022/09/21 04:32:01;;;;;;;2.97;2.40;;;8.00;99.90;;;;;;5116657;27;20428;-72
2022/09/21 04:34:27;;;;;;;3.70;2.20;;;8.00;99.90;;;;;;5106031;28;20460;-72
2022/09/21 04:36:53;;;;;;;2.90;2.10;;;8.00;99.90;;;;;;5100487;28;20546;-73
2022/09/21 04:39:19;;;;;;;3.58;2.10;;;7.90;99.90;;;;;;5102727;28;21035;-72
2022/09/21 04:41:45;;;;;;;4.40;2.55;;;7.80;99.90;;;;;;5105376;28;20476;-72
2022/09/21 04:44:10;;;;;;;3.00;2.70;;;7.70;99.90;;;;;;5101181;28;20408;-72
2022/09/21 04:46:36;;;;;;;3.85;3.13;;;7.70;99.90;;;;;;5108641;28;20396;-72
2022/09/21 04:49:01;;;;;;;3.60;2.50;;;7.70;99.90;;;;;;5110349;28;20380;-72
2022/09/21 04:51:27;;;;;;;4.28;2.78;;;7.60;99.90;;;;;;5099009;28;20388;-73
2022/09/21 04:53:52;;;;;;;4.40;2.60;;;7.70;99.90;;;;;;5104934;28;20942;-72
2022/09/21 04:56:18;;;;;;;2.90;2.70;;;7.70;99.90;;;;;;5110007;28;20437;-72
2022/09/21 04:58:44;;;;;;;2.70;2.50;;;7.60;99.90;;;;;;5112471;28;20400;-72
2022/09/21 05:01:10;;;;;;;3.70;2.63;;;7.60;99.90;;;;;;5100903;28;20402;-72
2022/09/21 05:03:36;;;;;;;3.65;2.70;;;7.60;99.90;;;;;;5108777;28;20395;-73
2022/09/21 05:06:01;;;;;;;2.83;2.63;;;7.60;99.90;;;;;;5109861;28;20392;-73
2022/09/21 05:11:19;;;;;;;4.47;2.77;;;7.50;99.90;;;;;;5117349;28;20509;-73
2022/09/21 05:13:46;;;;;;;3.22;2.60;;;7.50;99.90;;;;;;5103002;27;20396;-73
2022/09/21 05:16:12;;;;;;;3.30;2.80;;;7.50;99.90;;;;;;5103317;28;20396;-73
2022/09/21 05:18:38;;;;;;;4.07;3.00;;;7.40;99.90;;;;;;5107878;28;20421;-73
2022/09/21 05:21:05;;;;;;;3.83;2.67;;;7.50;99.90;;;;;;5109982;28;20918;-73
2022/09/21 05:23:30;;;;;;;3.47;2.70;;;7.50;99.90;;;;;;5098965;28;20400;-73
2022/09/21 05:25:59;;;;;;;3.13;2.80;;;7.50;99.90;;;;;;5106989;28;20404;-73
2022/09/21 05:28:26;;;;;;;3.90;3.33;;;7.60;99.90;;;;;;5121036;28;20378;-73
2022/09/21 05:30:56;;;;;;;5.60;3.20;;;7.70;99.90;;;;;;5128172;27;20383;-72
2022/09/21 05:33:25;;;;;;;4.40;2.70;;;7.70;99.90;;;;;;5118696;28;20373;-73
2022/09/21 05:36:15;;;;;;;4.10;3.10;;;7.80;99.90;;;;;;5109543;28;20414;-72
2022/09/21 05:38:41;;;;;;;4.80;3.20;;;7.70;99.90;;;;;;5109897;28;20531;-73
2022/09/21 05:41:07;;;;;;;2.83;2.63;;;7.70;99.90;;;;;;5101190;28;20472;-73
2022/09/21 05:43:33;;;;;;;3.10;2.80;;;7.80;99.90;;;;;;5121629;27;20421;-73
2022/09/21 05:46:10;;;;;;;3.17;2.80;;;7.80;99.90;;;;;;5116752;27;20941;-73
2022/09/21 05:48:41;;;;;;;3.72;3.13;;;7.90;99.90;;;;;;5098857;28;20424;-73
2022/09/21 05:51:23;;;;;;;3.88;2.90;;;8.00;99.90;;;;;;5106371;28;20396;-73
2022/09/21 05:54:02;;;;;;;5.63;3.00;;;7.90;99.90;;;;;;5110106;28;20766;-73
2022/09/21 05:56:51;;;;;;;5.15;3.28;;;7.90;99.90;;;;;;5120325;27;20419;-73
2022/09/21 05:59:52;;;;;;;4.28;3.10;;;8.00;99.90;;;;;;5113745;28;20386;-73
2022/09/21 06:02:53;;;;;;;5.07;3.10;;;8.00;99.90;;;;;;5100036;27;20402;-73
2022/09/21 06:05:19;;;;;;;4.10;3.28;;;7.90;99.90;;;;;;5114408;27;20394;-73
2022/09/21 06:07:44;;;;;;;3.90;2.88;;;8.00;99.90;;;;;;5118007;27;20849;-72
2022/09/21 06:10:12;;;;;;;3.63;3.20;;;8.10;99.90;;;;;;5119559;27;20467;-73
2022/09/21 06:12:38;;;;;;;5.40;3.10;;;8.20;99.90;;;;;;5122376;27;20403;-74
2022/09/21 06:15:05;;;;;;;3.50;2.90;;;8.30;99.90;;;;;;5129732;27;20424;-74
2022/09/21 06:17:31;;;;;;;3.30;3.00;;;8.30;99.90;;;;;;5108596;28;20427;-73
2022/09/21 06:19:57;;;;;;;4.13;2.92;;;8.40;99.90;;;;;;5092885;28;20706;-73
2022/09/21 06:22:23;;;;;;;21.50;15.77;;;8.40;99.90;;;;;;5091533;28;20378;-74
2022/09/21 06:24:48;;;;;;;4.32;3.38;;;8.40;99.90;;;;;;5116729;27;20400;-74
2022/09/21 06:27:14;;;;;;;4.15;3.55;;;8.40;99.90;;;;;;5115819;27;20438;-73
2022/09/21 06:29:39;;;;;;;6.80;3.73;;;8.60;99.90;;;;;;5116247;27;20428;-73
2022/09/21 06:32:05;;;;;;;3.60;3.30;;;8.60;99.90;;;;;;5123472;27;20387;-74
2022/09/21 06:34:31;;;;;;;3.70;2.50;;;8.60;99.90;;;;;;5133050;27;20763;-71
2022/09/21 06:36:57;;;;;;;5.53;2.72;;;8.60;99.90;;;;;;5120037;27;20407;-72
2022/09/21 06:39:22;;;;;;;4.53;3.20;;;8.60;99.90;;;;;;5122851;27;20477;-72
2022/09/21 06:41:48;;;;;;;3.53;3.00;;;8.70;99.90;;;;;;5132906;27;20381;-75
2022/09/21 06:44:13;;;;;;;5.50;3.30;;;8.80;99.90;;;;;;5129349;27;20383;-73
2022/09/21 06:46:39;;;;;;;6.70;2.70;;;8.90;99.90;;;;;;5115235;27;20400;-72
2022/09/21 06:49:04;;;;;;;3.00;2.50;;;9.00;99.90;;;;;;5122440;27;20903;-73
2022/09/21 06:51:30;;;;;;;3.70;2.20;;;9.00;99.90;;;;;;5108074;28;20893;-72
2022/09/21 06:53:57;;;;;;;2.93;2.30;;;9.10;99.90;;;;;;5109984;28;20762;-72
2022/09/21 06:56:23;;;;;;;3.30;2.50;;;9.10;99.90;;;;;;5131699;27;20944;-72
2022/09/21 06:58:49;;;;;;;3.30;2.80;;;9.40;99.90;;;;;;5110110;27;20524;-73
2022/09/21 07:01:15;;;;;;;3.75;2.80;;;9.40;99.90;;;;;;5105646;28;20427;-72
2022/09/21 07:03:42;;;;;;;5.13;2.70;;;9.40;99.90;;;;;;5103540;28;20400;-73
2022/09/21 07:06:10;;;;;;;3.73;2.90;;;9.50;99.90;;;;;;5120435;22;20527;-72
2022/09/21 07:08:38;;;;;;;4.85;2.97;;;9.50;99.90;;;;;;5091271;28;20386;-71
2022/09/21 07:11:03;;;;;;;3.35;2.75;;;9.50;99.90;;;;;;5086554;28;20395;-71
2022/09/21 07:13:29;;;;;;;4.20;3.20;;;9.60;99.90;;;;;;5079455;28;20461;-71
2022/09/21 07:15:55;;;;;;;4.27;3.00;;;9.70;99.90;;;;;;5079234;28;20429;-71
2022/09/21 07:18:21;;;;;;;4.05;2.72;;;9.80;99.90;;;;;;5073821;28;20408;-71
2022/09/21 07:20:50;;;;;;;3.85;2.88;;;9.80;99.90;;;;;;5077513;28;20430;-71
2022/09/21 07:23:18;;;;;;;5.10;3.20;;;10.00;99.90;;;;;;5070176;28;20453;-72
2022/09/21 07:25:48;;;;;;;4.22;3.30;;;9.90;99.90;;;;;;5075587;28;20415;-72
2022/09/21 07:28:13;;;;;;;4.20;2.90;;;10.00;99.90;;;;;;5068790;28;20395;-72
2022/09/21 07:30:39;;;;;;;4.13;3.10;;;10.10;99.90;;;;;;5068747;28;20395;-72
2022/09/21 07:33:06;;;;;;;4.18;3.05;;;10.20;99.90;;;;;;5074344;28;20408;-72
2022/09/21 07:35:32;;;;;;;3.92;3.17;;;10.30;99.90;;;;;;5065630;28;20457;-72
2022/09/21 07:38:03;;;;;;;4.00;3.50;;;10.40;99.90;;;;;;5069211;28;20452;-72
2022/09/21 07:40:29;;;;;;;3.50;3.20;;;10.50;99.90;;;;;;5071269;28;20461;-72
2022/09/21 07:43:00;;;;;;;3.38;2.90;;;10.60;99.90;;;;;;5075089;28;20451;-72
2022/09/21 07:45:26;;;;;;;4.50;3.45;;;10.80;99.90;;;;;;5076552;28;20421;-72
2022/09/21 07:47:53;;;;;;;4.50;3.30;;;10.70;99.90;;;;;;5077204;28;20803;-72
2022/09/21 07:50:20;;;;;;;5.00;3.30;;;10.80;99.90;;;;;;5071509;28;20403;-71
2022/09/21 07:52:46;;;;;;;5.30;2.90;;;10.80;99.90;;;;;;5074119;28;20397;-71
2022/09/21 07:55:11;;;;;;;4.47;3.10;;;10.80;99.90;;;;;;5076167;28;20414;-71
2022/09/21 08:00:21;;;;;;;6.05;3.50;;;10.80;99.90;;;;;;5086878;28;20966;-72
2022/09/21 08:02:46;;;;;;;4.60;3.30;;;10.90;99.90;;;;;;5083360;28;20396;-71
2022/09/21 08:05:12;;;;;;;5.77;3.47;;;10.90;99.90;;;;;;5076793;28;20422;-71
2022/09/21 08:07:38;;;;;;;5.23;4.00;;;11.00;99.90;;;;;;5068179;28;20724;-71
2022/09/21 08:10:03;;;;;;;4.53;3.70;;;11.10;99.90;;;;;;5061900;28;20383;-72
2022/09/21 08:12:29;;;;;;;3.67;3.38;;;11.20;99.90;;;;;;5072766;28;20930;-72
2022/09/21 08:14:54;;;;;;;4.43;3.30;;;11.20;99.90;;;;;;5077547;28;20409;-72
2022/09/21 08:17:20;;;;;;;5.18;3.28;;;11.30;99.90;;;;;;5078009;28;20760;-72
2022/09/21 08:19:46;;;;;;;3.50;3.20;;;11.30;99.90;;;;;;5052579;28;20389;-71
2022/09/21 08:22:12;;;;;;;4.60;3.27;;;11.40;99.90;;;;;;5069526;28;20395;-72
2022/09/21 08:24:43;;;;;;;4.03;3.33;;;11.30;99.90;;;;;;5070450;28;20395;-71
2022/09/21 08:27:09;;;;;;;5.45;3.80;;;11.40;99.90;;;;;;5070522;28;20432;-71
2022/09/21 08:29:35;;;;;;;3.70;3.30;;;11.40;99.90;;;;;;5070151;28;20956;-72
2022/09/21 08:32:01;;;;;;;4.55;3.60;;;11.60;99.90;;;;;;5068410;28;20487;-71
2022/09/21 08:34:26;;;;;;;3.60;3.30;;;11.70;99.90;;;;;;5075037;28;20447;-72
2022/09/21 08:36:52;;;;;;;5.20;3.30;;;11.70;99.90;;;;;;5056712;28;20380;-72
2022/09/21 08:39:18;;;;;;;5.10;3.47;;;11.60;99.90;;;;;;5050537;28;20393;-72
2022/09/21 08:42:23;;;;;;;4.83;3.23;;;11.80;99.90;;;;;;5060609;28;20388;-69
2022/09/21 08:44:56;;;;;;;4.60;3.15;;;11.90;99.90;;;;;;5069909;28;20429;-73
2022/09/21 08:47:34;;;;;;;3.63;3.25;;;11.90;99.90;;;;;;5070484;28;20439;-72
2022/09/21 08:50:02;;;;;;;3.70;3.10;;;11.90;99.90;;;;;;5070364;28;20529;-72
2022/09/21 08:52:30;;;;;;;4.10;3.40;;;11.90;99.90;;;;;;5070209;28;20446;-72
2022/09/21 08:55:00;;;;;;;4.15;2.90;;;11.90;99.90;;;;;;5069918;28;20947;-72
2022/09/21 08:57:31;;;;;;;3.70;2.85;;;12.10;99.90;;;;;;5070712;28;20391;-72
2022/09/21 08:59:59;;;;;;;3.57;3.27;;;12.20;99.90;;;;;;5070459;28;20763;-72
2022/09/21 09:02:49;;;;;;;5.47;3.30;;;12.30;99.90;;;;;;5070148;28;20430;-70
2022/09/21 09:05:47;;;;;;;4.22;3.53;;;12.30;99.90;;;;;;5063722;28;20756;-70
2022/09/21 09:08:31;;;;;;;5.90;3.42;;;12.30;99.90;;;;;;5069199;28;20415;-72
2022/09/21 09:11:40;;;;;;;4.60;3.50;;;12.40;99.90;;;;;;5075524;28;20381;-70
2022/09/21 09:14:21;;;;;;;4.43;3.85;;;12.50;99.90;;;;;;5074322;28;20396;-70
2022/09/21 09:17:21;;;;;;;4.80;3.20;;;12.40;99.90;;;;;;5053485;28;20406;-72
2022/09/21 09:19:49;;;;;;;3.65;3.30;;;12.60;99.90;;;;;;5067159;28;20410;-72
2022/09/21 09:22:22;;;;;;;4.50;3.40;;;12.70;99.90;;;;;;5070284;28;20469;-71
2022/09/21 09:24:53;;;;;;;4.17;3.10;;;12.80;99.90;;;;;;5049792;28;20393;-73
2022/09/21 09:27:31;;;;;;;4.30;3.17;;;12.90;99.90;;;;;;5064185;28;20439;-71
2022/09/21 09:30:04;;;;;;;5.47;3.15;;;13.00;99.90;;;;;;5073920;28;21211;-71
2022/09/21 09:32:45;;;;;;;3.88;3.05;;;13.10;99.90;;;;;;5076461;28;20405;-70
2022/09/21 09:35:32;;;;;;;3.40;3.10;;;13.30;99.90;;;;;;5080846;28;20814;-70
2022/09/21 09:38:22;;;;;;;3.60;3.20;;;13.40;99.90;;;;;;5080180;28;20385;-71
2022/09/21 09:41:19;;;;;;;4.43;2.70;;;13.40;99.90;;;;;;5080489;28;20373;-70
2022/09/21 09:44:15;;;;;;;3.30;2.50;;;13.60;99.90;;;;;;5084252;28;20767;-70
2022/09/21 09:46:59;;;;;;;3.60;2.60;;;13.70;99.90;;;;;;5094286;28;20960;-71
2022/09/21 09:49:38;;;;;;;3.85;2.90;;;13.90;99.90;;;;;;5054024;28;20391;-70
2022/09/21 09:52:06;;;;;;;3.83;2.33;;;13.90;99.90;;;;;;5072002;28;20398;-71
2022/09/21 09:54:34;;;;;;;3.00;2.70;;;14.10;99.90;;;;;;5068950;28;20408;-70
2022/09/21 09:57:04;;;;;;;4.03;2.72;;;14.10;99.90;;;;;;5079032;28;20441;-70
2022/09/21 09:59:45;;;;;;;4.40;2.50;;;14.20;99.90;;;;;;5090065;28;20408;-70
2022/09/21 10:02:19;;;;;;;4.32;2.78;;;14.30;99.90;;;;;;5064520;28;20395;-71
2022/09/21 10:05:08;;;;;;;2.85;2.00;;;14.50;99.90;;;;;;5067973;28;21128;-71
2022/09/21 10:07:39;;;;;;;3.55;2.10;;;14.60;99.90;;;;;;5068036;28;20458;-71
2022/09/21 10:10:20;;;;;;;2.40;2.20;;;14.60;99.90;;;;;;5067994;28;20426;-71
2022/09/21 10:12:46;;;;;;;3.90;2.00;;;14.80;99.90;;;;;;5065337;28;20400;-71
2022/09/21 10:15:12;;;;;;;2.35;2.15;;;14.70;99.90;;;;;;5066096;28;20396;-71
2022/09/21 10:17:38;;;;;;;2.40;2.08;;;14.90;99.90;;;;;;5068380;28;20391;-71
2022/09/21 10:20:07;;;;;;;3.30;2.40;;;15.20;99.90;;;;;;5069077;28;20431;-71
2022/09/21 10:22:33;;;;;;;2.50;2.30;;;15.30;99.90;;;;;;5066096;28;20792;-71
2022/09/21 10:25:00;;;;;;;2.80;2.03;;;15.60;99.90;;;;;;5067338;28;20422;-71
2022/09/21 10:27:27;;;;;;;3.22;1.90;;;15.80;99.90;;;;;;5066455;28;20420;-72
2022/09/21 10:29:53;;;;;;;2.33;1.67;;;15.80;99.90;;;;;;5065994;28;20453;-71
2022/09/21 10:32:25;;;;;;;1.88;1.33;;;15.90;96.40;;;;;;5063668;28;20406;-71
2022/09/21 10:35:06;;;;;;;1.80;1.38;;;16.10;93.90;;;;;;5063484;28;21090;-71
2022/09/21 10:37:36;;;;;;;1.50;1.40;;;16.40;91.30;;;;;;5059453;28;20396;-71
2022/09/21 10:40:03;;;;;;;1.60;1.10;;;16.50;87.00;;;;;;5062713;28;20435;-71
2022/09/21 10:42:41;;;;;;;1.37;1.27;;;16.60;90.90;;;;;;5067627;28;20482;-71
2022/09/21 10:45:20;;;;;;;2.00;1.10;;;16.80;85.10;;;;;;5072510;28;20457;-71
2022/09/21 10:47:50;;;;;;;1.30;1.20;;;16.80;86.20;;;;;;5071336;28;20649;-71
2022/09/21 10:50:38;;;;;;;1.80;1.40;;;17.20;83.70;;;;;;5066775;28;20451;-70
2022/09/21 10:53:09;;;;;;;2.25;1.20;;;17.30;89.50;;;;;;5069424;28;20380;-71
2022/09/21 10:56:03;;;;;;;1.73;1.13;;;17.40;87.60;;;;;;5050590;28;20443;-71
2022/09/21 10:58:30;;;;;;;1.40;1.30;;;17.40;80.40;;;;;;5042172;28;20385;-71
2022/09/21 11:01:12;;;;;;;2.37;1.23;;;17.60;80.10;;;;;;5050797;28;20381;-71
2022/09/21 11:03:59;;;;;;;1.90;1.20;;;17.80;81.10;;;;;;5052404;28;20377;-70
2022/09/21 11:06:29;;;;;;;1.95;1.20;;;17.80;75.20;;;;;;5051622;28;20814;-71
2022/09/21 11:09:00;;;;;;;2.30;1.63;;;17.80;76.20;;;;;;5060289;28;20444;-71
2022/09/21 11:11:44;;;;;;;1.60;1.20;;;18.00;78.70;;;;;;5062270;28;20408;-71
2022/09/21 11:14:21;;;;;;;1.75;1.10;;;18.10;73.90;;;;;;5070291;28;20376;-71
2022/09/21 11:17:03;;;;;;;1.10;1.00;;;18.70;78.50;;;;;;5072779;28;20762;-71
2022/09/21 11:19:41;;;;;;;1.50;1.17;;;19.10;72.00;;;;;;5052670;28;20377;-70
2022/09/21 11:22:41;;;;;;;1.50;1.20;;;19.00;70.10;;;;;;5051756;28;20405;-71
2022/09/21 11:25:24;;;;;;;1.52;1.05;;;19.50;69.10;;;;;;5052458;28;20389;-71
2022/09/21 11:28:03;;;;;;;3.47;1.00;;;20.60;67.30;;;;;;5070223;28;20400;-71
2022/09/21 11:30:44;;;;;;;1.67;0.80;;;21.50;67.10;;;;;;5072450;28;20383;-71
2022/09/21 11:33:18;;;;;;;1.30;1.00;;;21.80;63.40;;;;;;5072275;28;20380;-71
2022/09/21 11:35:59;;;;;;;1.10;1.00;;;22.00;58.90;;;;;;5072310;28;20384;-72
2022/09/21 11:38:42;;;;;;;2.50;1.10;;;21.70;58.00;;;;;;5072765;28;20394;-71
2022/09/21 11:41:38;;;;;;;1.13;0.80;;;21.80;59.30;;;;;;5072916;28;20436;-72
2022/09/21 11:44:27;;;;;;;1.48;0.90;;;22.40;58.20;;;;;;5072229;28;20526;-71
2022/09/21 11:47:01;;;;;;;1.48;0.75;;;21.90;55.80;;;;;;5072030;28;20403;-70
2022/09/21 11:50:04;;;;;;;1.90;0.90;;;21.40;55.20;;;;;;5063542;28;20392;-71
2022/09/21 11:52:51;;;;;;;1.30;0.90;;;21.30;56.00;;;;;;5066026;28;20383;-71
2022/09/21 11:55:27;;;;;;;1.17;0.70;;;21.40;57.80;;;;;;5057521;28;20385;-71
2022/09/21 11:57:57;;;;;;;1.40;0.80;;;21.20;57.60;;;;;;5051522;28;20399;-71
2022/09/21 12:00:25;;;;;;;0.90;0.70;;;21.20;57.20;;;;;;5052159;28;20378;-71
2022/09/21 12:03:01;;;;;;;1.00;0.80;;;21.80;58.40;;;;;;5051782;28;20389;-71
2022/09/21 12:05:30;;;;;;;1.55;0.85;;;22.30;57.60;;;;;;5051439;28;20397;-71
2022/09/21 12:08:26;;;;;;;0.93;0.70;;;20.90;55.40;;;;;;5069574;28;20386;-70
2022/09/21 12:11:06;;;;;;;1.52;0.80;;;21.00;58.80;;;;;;5071232;28;20380;-71
2022/09/21 12:13:41;;;;;;;1.15;0.70;;;21.10;55.10;;;;;;5070987;28;20816;-71
2022/09/21 12:16:31;;;;;;;1.65;0.65;;;20.80;54.30;;;;;;5070672;28;20930;-71
2022/09/21 12:19:23;;;;;;;1.38;0.75;;;21.00;58.40;;;;;;5069866;28;20394;-71
2022/09/21 12:21:54;;;;;;;3.70;0.80;;;20.40;58.30;;;;;;5071008;28;20380;-71
2022/09/21 12:24:31;;;;;;;2.20;1.00;;;20.30;55.50;;;;;;5068638;28;20392;-72
2022/09/21 12:27:00;;;;;;;2.50;0.90;;;20.80;60.40;;;;;;5069882;28;20399;-71
2022/09/21 12:29:48;;;;;;;0.63;0.50;;;20.70;58.50;;;;;;5054775;28;20404;-71
2022/09/21 12:32:32;;;;;;;1.40;0.70;;;20.80;58.40;;;;;;5071722;28;20395;-72
2022/09/21 12:35:04;;;;;;;1.80;0.63;;;20.80;56.90;;;;;;5067457;28;20408;-71
2022/09/21 12:37:39;;;;;;;1.90;0.90;;;20.30;56.90;;;;;;5075145;28;20413;-72
2022/09/21 12:40:31;;;;;;;1.33;0.80;;;19.90;53.40;;;;;;5053321;28;20388;-69
2022/09/21 12:43:05;;;;;;;1.10;0.70;;;20.30;53.90;;;;;;5066812;28;20544;-71
2022/09/21 12:45:46;;;;;;;0.80;0.70;;;19.90;55.00;;;;;;5070998;28;20384;-71
2022/09/21 12:48:37;;;;;;;0.98;0.80;;;20.20;56.20;;;;;;5071199;28;20410;-71
2022/09/21 12:51:31;;;;;;;1.20;0.80;;;20.40;56.00;;;;;;5069634;28;20753;-71
2022/09/21 12:54:06;;;;;;;1.30;0.93;;;20.80;57.30;;;;;;5071672;28;20395;-71
2022/09/21 12:56:54;;;;;;;1.30;0.80;;;20.70;56.20;;;;;;5063411;28;20401;-71
2022/09/21 12:59:44;;;;;;;1.08;0.60;;;20.90;58.20;;;;;;5071961;28;20781;-71
2022/09/21 13:02:45;;;;;;;1.20;0.70;;;21.20;57.50;;;;;;5083542;28;20419;-70
2022/09/21 13:05:35;;;;;;;0.80;0.70;;;20.50;57.60;;;;;;5072911;28;20429;-70
2022/09/21 13:08:12;;;;;;;1.10;0.70;;;20.20;57.60;;;;;;5110079;22;20923;-71
2022/09/21 13:10:46;;;;;;;1.30;0.70;;;20.40;56.60;;;;;;5038296;28;20389;-72
2022/09/21 13:13:23;;;;;;;1.00;0.60;;;20.60;58.00;;;;;;5052897;28;20392;-72
2022/09/21 13:15:50;;;;;;;1.40;0.70;;;21.30;56.00;;;;;;5051791;28;20397;-72
2022/09/21 13:18:23;;;;;;;1.13;0.70;;;20.50;55.80;;;;;;5046984;28;20943;-71
2022/09/21 13:20:51;;;;;;;0.82;0.80;;;20.20;55.90;;;;;;5053415;28;20381;-70
2022/09/21 13:23:40;;;;;;;2.53;1.58;;;20.70;58.20;;;;;;5050829;28;20511;-72
2022/09/21 13:26:41;;;;;;;0.60;0.60;;;21.20;56.70;;;;;;5052133;28;20410;-71
2022/09/21 13:29:15;;;;;;;1.20;0.80;;;20.70;53.20;;;;;;5049000;28;20488;-72